createdAt,value
2019-01-09T00:01:41.343Z,100578.79
2019-01-09T00:04:10.230Z,100566.50
2019-01-09T00:06:39.221Z,100573.84
2019-01-09T00:09:08.437Z,100582.98
2019-01-09T00:11:37.498Z,100586.17
2019-01-09T00:14:06.380Z,100588.16
2019-01-09T00:16:35.253Z,100585.14
2019-01-09T00:19:04.139Z,100588.70
2019-01-09T00:21:33.349Z,100594.28
2019-01-09T00:24:03.555Z,100598.33
2019-01-09T00:26:33.773Z,100598.06
2019-01-09T00:29:03.170Z,100607.42
2019-01-09T00:31:34.642Z,100606.76
2019-01-09T00:34:03.577Z,100606.48
2019-01-09T00:36:32.742Z,100622.11
2019-01-09T00:39:01.718Z,100620.31
2019-01-09T00:42:21.363Z,100617.51
2019-01-09T00:44:51.907Z,100624.04
2019-01-09T00:47:20.819Z,100636.28
2019-01-09T00:49:49.661Z,100635.16
2019-01-09T00:52:18.551Z,100638.41
2019-01-09T00:54:47.443Z,100641.96
2019-01-09T00:57:16.412Z,100647.89
2019-01-09T00:59:45.347Z,100657.53
2019-01-09T01:02:50.025Z,100649.84
2019-01-09T01:05:45.964Z,100657.53
2019-01-09T01:08:57.467Z,100677.58
2019-01-09T01:12:05.997Z,100668.79
2019-01-09T01:15:07.689Z,100676.45
2019-01-09T01:18:01.992Z,100675.81
2019-01-09T01:20:55.880Z,100680.86
2019-01-09T01:24:04.356Z,100686.89
2019-01-09T01:27:10.075Z,100700.44
2019-01-09T01:30:30.529Z,100716.78
2019-01-09T01:37:12.677Z,100709.80
2019-01-09T01:40:07.986Z,100725.28
2019-01-09T01:43:39.183Z,100717.27
2019-01-09T01:47:07.421Z,100721.69
2019-01-09T01:50:18.461Z,100737.06
2019-01-09T01:53:25.208Z,100743.39
2019-01-09T01:56:37.629Z,100741.09
2019-01-09T01:59:40.438Z,100748.50
2019-01-09T02:02:38.541Z,100758.62
2019-01-09T02:05:33.509Z,100762.86
2019-01-09T02:08:23.634Z,100769.38
2019-01-09T02:11:14.304Z,100772.66
2019-01-09T02:14:02.823Z,100778.70
2019-01-09T02:17:10.080Z,100782.78
2019-01-09T02:20:16.041Z,100788.50
2019-01-09T02:23:03.220Z,100772.52
2019-01-09T02:26:07.860Z,100790.30
2019-01-09T02:28:49.516Z,100799.92
2019-01-09T02:32:11.724Z,100789.98
2019-01-09T02:34:41.371Z,100793.72
2019-01-09T02:37:14.691Z,100799.43
2019-01-09T02:39:43.556Z,100799.75
2019-01-09T02:42:12.557Z,100814.45
2019-01-09T02:44:41.766Z,100809.58
2019-01-09T02:47:11.962Z,100810.36
2019-01-09T02:49:40.883Z,100805.31
2019-01-09T02:52:09.809Z,100813.78
2019-01-09T02:54:38.685Z,100816.74
2019-01-09T03:00:49.566Z,100816.89
2019-01-09T03:03:18.363Z,100819.82
2019-01-09T03:05:47.347Z,100829.30
2019-01-09T03:08:16.145Z,100828.88
2019-01-09T03:10:45.010Z,100822.66
2019-01-09T03:13:14.399Z,100817.45
2019-01-09T03:15:43.808Z,100817.11
2019-01-09T03:18:12.927Z,100830.50
2019-01-09T03:20:44.100Z,100818.41
2019-01-09T03:23:13.281Z,100832.75
2019-01-09T03:25:42.274Z,100833.07
2019-01-09T03:28:13.406Z,100832.77
2019-01-09T03:30:42.310Z,100834.35
2019-01-09T03:33:11.284Z,100838.61
2019-01-09T03:35:42.451Z,100842.87
2019-01-09T03:38:12.940Z,100848.09
2019-01-09T03:40:42.153Z,100835.36
2019-01-09T03:43:13.083Z,100838.33
2019-01-09T03:45:42.519Z,100843.21
2019-01-09T03:48:13.208Z,100849.08
2019-01-09T03:50:42.066Z,100843.52
2019-01-09T03:53:12.949Z,100844.66
2019-01-09T03:55:41.819Z,100855.26
2019-01-09T03:58:10.684Z,100853.97
2019-01-09T04:00:42.113Z,100857.56
2019-01-09T04:03:12.803Z,100860.50
2019-01-09T04:05:44.400Z,100857.87
2019-01-09T04:08:13.625Z,100864.89
2019-01-09T04:10:42.785Z,100868.16
2019-01-09T04:13:11.699Z,100878.41
2019-01-09T04:15:43.111Z,100868.14
2019-01-09T04:18:13.005Z,100876.95
2019-01-09T04:20:44.721Z,100873.55
2019-01-09T04:23:13.963Z,100885.13
2019-01-09T04:25:44.975Z,100873.85
2019-01-09T04:28:16.222Z,100882.48
2019-01-09T04:30:47.011Z,100887.55
2019-01-09T04:33:15.920Z,100884.30
2019-01-09T04:35:46.110Z,100884.31
2019-01-09T04:38:14.907Z,100886.07
2019-01-09T04:40:43.929Z,100897.33
2019-01-09T04:43:12.810Z,100899.62
2019-01-09T04:45:41.690Z,100903.55
2019-01-09T04:48:12.880Z,100915.11
2019-01-09T04:50:42.059Z,100903.36
2019-01-09T04:53:11.983Z,100905.50
2019-01-09T04:55:43.359Z,100918.21
2019-01-09T04:58:12.246Z,100918.06
2019-01-09T05:00:42.309Z,100910.89
2019-01-09T05:03:11.155Z,100910.73
2019-01-09T05:05:40.238Z,100910.73
2019-01-09T05:08:11.252Z,100920.36
2019-01-09T05:10:42.185Z,100926.86
2019-01-09T05:13:13.453Z,100914.50
2019-01-09T05:15:47.354Z,100919.70
2019-01-09T05:18:16.188Z,100920.17
2019-01-09T05:20:47.357Z,100922.95
2019-01-09T05:23:16.150Z,100913.66
2019-01-09T05:25:45.154Z,100916.28
2019-01-09T05:28:14.269Z,100909.11
2019-01-09T05:30:43.372Z,100935.37
2019-01-09T05:33:12.584Z,100928.84
2019-01-09T05:35:41.760Z,100930.83
2019-01-09T05:38:13.057Z,100934.56
2019-01-09T05:40:42.313Z,100938.97
2019-01-09T05:43:11.229Z,100941.58
2019-01-09T05:45:40.113Z,100944.00
2019-01-09T05:48:09.015Z,100949.23
2019-01-09T05:50:39.201Z,100957.58
2019-01-09T05:53:10.116Z,100948.58
2019-01-09T05:55:39.032Z,100961.65
2019-01-09T05:58:07.901Z,100965.41
2019-01-09T06:00:37.838Z,100963.94
2019-01-09T06:03:11.127Z,100976.64
2019-01-09T06:05:40.146Z,100971.77
2019-01-09T06:08:09.046Z,100976.82
2019-01-09T06:10:37.964Z,100980.89
2019-01-09T06:13:10.082Z,100980.41
2019-01-09T06:15:38.928Z,100982.20
2019-01-09T06:18:07.853Z,100984.17
2019-01-09T06:20:36.826Z,100986.28
2019-01-09T06:23:07.905Z,100987.44
2019-01-09T06:25:36.702Z,100999.34
2019-01-09T06:28:07.936Z,100996.55
2019-01-09T06:30:36.910Z,100994.44
2019-01-09T06:33:08.103Z,101008.14
2019-01-09T06:35:37.409Z,101003.92
2019-01-09T06:38:06.361Z,101016.47
2019-01-09T06:40:35.576Z,101034.08
2019-01-09T06:43:04.517Z,101033.76
2019-01-09T06:45:33.503Z,101032.12
2019-01-09T06:48:02.415Z,101040.12
2019-01-09T06:50:32.474Z,101048.09
2019-01-09T06:53:01.653Z,101043.86
2019-01-09T06:55:30.691Z,101038.48
2019-01-09T06:57:59.697Z,101041.09
2019-01-09T07:00:28.756Z,101047.47
2019-01-09T07:02:57.627Z,101048.27
2019-01-09T07:05:26.545Z,101050.23
2019-01-09T07:07:55.477Z,101057.40
2019-01-09T07:10:27.290Z,101055.11
2019-01-09T07:12:56.151Z,101055.94
2019-01-09T07:15:25.133Z,101066.53
2019-01-09T07:17:55.584Z,101059.70
2019-01-09T07:20:26.016Z,101066.39
2019-01-09T07:22:57.417Z,101071.58
2019-01-09T07:25:27.857Z,101071.09
2019-01-09T07:27:57.009Z,101075.50
2019-01-09T07:30:28.400Z,101084.98
2019-01-09T07:32:58.369Z,101085.96
2019-01-09T07:35:27.269Z,101090.53
2019-01-09T07:37:56.130Z,101091.67
2019-01-09T07:40:25.092Z,101100.97
2019-01-09T07:42:54.004Z,101100.80
2019-01-09T07:45:22.934Z,101109.45
2019-01-09T07:47:51.750Z,101115.33
2019-01-09T07:50:20.654Z,101116.62
2019-01-09T07:52:49.809Z,101118.75
2019-01-09T07:55:18.767Z,101116.46
2019-01-09T07:57:47.713Z,101111.57
2019-01-09T08:00:16.699Z,101121.03
2019-01-09T08:02:48.844Z,101126.91
2019-01-09T08:05:18.073Z,101139.47
2019-01-09T08:07:53.766Z,101134.58
2019-01-09T08:10:17.667Z,101128.22
2019-01-09T08:12:48.623Z,101136.05
2019-01-09T08:15:17.913Z,101132.61
2019-01-09T08:17:47.845Z,101147.62
2019-01-09T08:20:17.056Z,101156.27
2019-01-09T08:22:48.341Z,101166.06
2019-01-09T08:25:17.336Z,101167.86
2019-01-09T08:31:43.782Z,101176.67
2019-01-09T08:34:12.687Z,101178.95
2019-01-09T08:36:41.631Z,101183.03
2019-01-09T08:39:10.503Z,101190.05
2019-01-09T08:41:39.597Z,101194.13
2019-01-09T08:44:11.556Z,101188.42
2019-01-09T08:46:42.746Z,101194.29
2019-01-09T08:49:11.579Z,101208.98
2019-01-09T08:51:40.461Z,101206.86
2019-01-09T08:54:09.369Z,101212.08
2019-01-09T08:56:40.645Z,101204.57
2019-01-09T08:59:10.905Z,101209.95
2019-01-09T09:01:39.784Z,101212.56
2019-01-09T09:04:08.738Z,101216.81
2019-01-09T09:06:37.597Z,101224.31
2019-01-09T09:09:08.085Z,101226.76
2019-01-09T09:11:37.018Z,101231.16
2019-01-09T09:14:07.998Z,101240.30
2019-01-09T09:16:37.078Z,101242.91
2019-01-09T09:19:06.002Z,101251.06
2019-01-09T09:21:53.133Z,101255.64
2019-01-09T09:24:22.092Z,101263.47
2019-01-09T09:26:50.955Z,101262.33
2019-01-09T09:29:19.940Z,101267.72
2019-01-09T09:31:48.913Z,101271.30
2019-01-09T09:34:20.190Z,101272.23
2019-01-09T09:36:49.148Z,101273.86
2019-01-09T09:39:18.072Z,101277.16
2019-01-09T09:41:46.945Z,101280.26
2019-01-09T09:44:15.875Z,101283.97
2019-01-09T09:46:44.822Z,101288.91
2019-01-09T09:49:13.669Z,101296.41
2019-01-09T09:51:42.531Z,101295.92
2019-01-09T09:54:11.414Z,101302.94
2019-01-09T09:56:40.613Z,101302.78
2019-01-09T09:59:09.533Z,101303.27
2019-01-09T10:01:38.495Z,101310.61
2019-01-09T10:04:08.914Z,101308.32
2019-01-09T10:06:39.678Z,101301.80
2019-01-09T10:09:10.603Z,101303.45
2019-01-09T10:11:39.516Z,101309.53
2019-01-09T10:14:08.362Z,101314.77
2019-01-09T10:16:39.390Z,101302.20
2019-01-09T10:19:09.656Z,101309.86
2019-01-09T10:21:38.653Z,101300.69
2019-01-09T10:24:10.379Z,101311.29
2019-01-09T10:26:39.997Z,101313.08
2019-01-09T10:29:09.327Z,101320.58
2019-01-09T10:31:38.094Z,101319.58
2019-01-09T10:34:06.949Z,101315.34
2019-01-09T10:36:35.870Z,101317.25
2019-01-09T10:39:08.668Z,101315.83
2019-01-09T10:41:37.580Z,101321.17
2019-01-09T10:44:06.537Z,101337.36
2019-01-09T10:46:36.547Z,101333.94
2019-01-09T10:49:07.844Z,101324.64
2019-01-09T10:51:36.819Z,101336.06
2019-01-09T10:54:05.677Z,101330.68
2019-01-09T10:56:34.497Z,101330.38
2019-01-09T10:59:03.353Z,101332.33
2019-01-09T11:01:32.345Z,101340.34
2019-01-09T11:04:01.283Z,101338.87
2019-01-09T11:06:33.493Z,101350.30
2019-01-09T11:09:02.800Z,101345.56
2019-01-09T11:11:32.250Z,101343.64
2019-01-09T11:14:03.390Z,101355.38
2019-01-09T11:16:32.250Z,101352.24
2019-01-09T11:19:02.618Z,101362.34
2019-01-09T11:21:33.779Z,101367.22
2019-01-09T11:24:03.358Z,101357.11
2019-01-09T11:26:32.286Z,101362.00
2019-01-09T11:29:01.211Z,101364.60
2019-01-09T11:31:30.136Z,101368.36
2019-01-09T11:33:59.775Z,101367.22
2019-01-09T11:36:29.329Z,101364.30
2019-01-09T11:38:58.475Z,101379.31
2019-01-09T11:41:27.612Z,101385.52
2019-01-09T11:43:56.588Z,101380.45
2019-01-09T11:46:25.460Z,101383.89
2019-01-09T11:48:54.380Z,101382.90
2019-01-09T11:51:23.265Z,101388.70
2019-01-09T11:53:52.252Z,101389.34
2019-01-09T11:56:21.195Z,101384.95
2019-01-09T11:58:50.130Z,101385.77
2019-01-09T12:01:18.972Z,101384.50
2019-01-09T12:03:47.853Z,101395.05
2019-01-09T12:06:16.808Z,101396.53
2019-01-09T12:08:49.899Z,101400.33
2019-01-09T12:11:21.083Z,101397.84
2019-01-09T12:13:50.128Z,101405.72
2019-01-09T12:16:21.204Z,101407.36
2019-01-09T12:18:50.206Z,101409.91
2019-01-09T12:21:19.098Z,101409.25
2019-01-09T12:23:47.869Z,101413.50
2019-01-09T12:29:44.230Z,101418.12
2019-01-09T12:32:13.169Z,101422.36
2019-01-09T12:34:42.141Z,101427.11
2019-01-09T12:37:11.117Z,101428.74
2019-01-09T12:39:40.040Z,101426.44
2019-01-09T12:42:08.897Z,101430.52
2019-01-09T12:44:37.868Z,101433.14
2019-01-09T12:47:57.572Z,101428.59
2019-01-09T12:50:26.907Z,101440.82
2019-01-09T12:53:16.385Z,101437.86
2019-01-09T12:55:45.264Z,101441.95
2019-01-09T12:58:15.821Z,101441.64
2019-01-09T13:00:45.058Z,101447.19
2019-01-09T13:03:15.488Z,101442.95
2019-01-09T13:05:47.538Z,101450.44
2019-01-09T13:08:16.787Z,101445.73
2019-01-09T13:10:45.865Z,101455.66
2019-01-09T13:13:15.314Z,101459.09
2019-01-09T13:16:20.315Z,101463.50
2019-01-09T13:18:49.214Z,101479.80
2019-01-09T13:21:18.104Z,101481.59
2019-01-09T13:23:46.989Z,101489.42
2019-01-09T13:26:15.904Z,101488.63
2019-01-09T13:28:44.711Z,101493.31
2019-01-09T13:31:13.786Z,101505.34
2019-01-09T13:33:42.668Z,101500.66
2019-01-09T13:36:11.630Z,101514.33
2019-01-09T13:38:40.578Z,101515.63
2019-01-09T13:41:10.063Z,101520.73
2019-01-09T13:43:38.970Z,101519.42
2019-01-09T13:46:07.831Z,101520.52
2019-01-09T13:48:36.830Z,101522.74
2019-01-09T13:51:05.900Z,101529.63
2019-01-09T13:53:36.359Z,101532.57
2019-01-09T13:56:05.716Z,101527.84
2019-01-09T13:58:35.759Z,101536.66
2019-01-09T14:01:04.820Z,101539.73
2019-01-09T14:03:33.736Z,101553.48
2019-01-09T14:06:02.616Z,101545.80
2019-01-09T14:08:31.645Z,101554.27
2019-01-09T14:11:00.510Z,101549.87
2019-01-09T14:13:29.486Z,101558.00
2019-01-09T14:15:58.456Z,101566.47
2019-01-09T14:18:28.064Z,101565.47
2019-01-09T14:20:56.963Z,101573.94
2019-01-09T14:23:25.898Z,101575.79
2019-01-09T14:25:54.858Z,101581.50
2019-01-09T14:28:24.076Z,101589.33
2019-01-09T14:30:52.987Z,101581.34
2019-01-09T14:33:21.892Z,101593.09
2019-01-09T14:35:50.960Z,101597.03
2019-01-09T14:38:19.944Z,101598.16
2019-01-09T14:40:48.855Z,101600.83
2019-01-09T14:43:17.849Z,101599.16
2019-01-09T14:45:46.760Z,101606.98
2019-01-09T14:48:17.394Z,101604.75
2019-01-09T14:50:50.020Z,101601.55
2019-01-09T14:53:21.035Z,101607.63
2019-01-09T14:55:54.190Z,101618.89
2019-01-09T14:58:24.541Z,101612.09
2019-01-09T15:00:53.494Z,101615.06
2019-01-09T15:03:22.425Z,101616.19
2019-01-09T15:05:51.402Z,101624.02
2019-01-09T15:08:20.286Z,101626.63
2019-01-09T15:10:49.203Z,101628.76
2019-01-09T15:13:18.081Z,101629.27
2019-01-09T15:15:47.052Z,101625.96
2019-01-09T15:18:16.005Z,101641.33
2019-01-09T15:20:44.879Z,101637.01
2019-01-09T15:23:13.831Z,101635.77
2019-01-09T15:25:42.810Z,101647.66
2019-01-09T15:28:11.751Z,101635.47
2019-01-09T15:30:40.653Z,101649.64
2019-01-09T15:33:09.654Z,101641.56
2019-01-09T15:35:38.612Z,101651.09
2019-01-09T15:38:07.552Z,101648.76
2019-01-09T15:40:36.456Z,101650.91
2019-01-09T15:43:05.425Z,101654.19
2019-01-09T15:45:34.319Z,101667.73
2019-01-09T15:48:03.137Z,101664.09
2019-01-09T15:50:32.025Z,101671.88
2019-01-09T15:53:00.910Z,101668.59
2019-01-09T15:55:29.797Z,101669.87
2019-01-09T15:57:58.785Z,101668.56
2019-01-09T16:00:30.435Z,101686.83
2019-01-09T16:03:02.344Z,101671.06
2019-01-09T16:05:31.322Z,101681.50
2019-01-09T16:08:20.762Z,101672.66
2019-01-09T16:10:49.662Z,101674.48
2019-01-09T16:13:36.756Z,101686.53
2019-01-09T16:16:05.837Z,101681.98
2019-01-09T16:18:34.846Z,101693.88
2019-01-09T16:21:03.713Z,101699.81
2019-01-09T16:23:32.608Z,101692.58
2019-01-09T16:26:01.542Z,101696.67
2019-01-09T16:28:30.482Z,101687.54
2019-01-09T16:31:25.903Z,101701.56
2019-01-09T16:33:54.835Z,101699.92
2019-01-09T16:36:25.122Z,101708.09
2019-01-09T16:38:54.351Z,101720.65
2019-01-09T16:41:23.380Z,101713.12
2019-01-09T16:43:52.340Z,101723.89
2019-01-09T16:46:21.707Z,101730.94
2019-01-09T16:48:53.101Z,101729.49
2019-01-09T16:51:23.012Z,101734.90
2019-01-09T16:53:52.440Z,101750.77
2019-01-09T16:56:21.711Z,101748.69
2019-01-09T16:58:51.514Z,101758.16
2019-01-09T17:01:20.564Z,101754.39
2019-01-09T17:03:49.556Z,101765.84
2019-01-09T17:06:18.853Z,101764.55
2019-01-09T17:08:47.839Z,101770.30
2019-01-09T17:11:17.044Z,101765.27
2019-01-09T17:13:46.014Z,101772.18
2019-01-09T17:16:14.934Z,101772.03
2019-01-09T17:18:43.818Z,101775.99
2019-01-09T17:21:12.799Z,101778.75
2019-01-09T17:23:43.420Z,101781.50
2019-01-09T17:26:12.296Z,101788.18
2019-01-09T17:28:41.300Z,101798.14
2019-01-09T17:31:10.211Z,101798.58
2019-01-09T17:33:39.105Z,101801.52
2019-01-09T17:36:08.086Z,101802.48
2019-01-09T17:38:36.963Z,101813.16
2019-01-09T17:41:06.193Z,101821.45
2019-01-09T17:43:41.202Z,101812.74
2019-01-09T17:46:10.597Z,101812.60
2019-01-09T17:48:41.989Z,101828.05
2019-01-09T17:51:12.064Z,101837.03
2019-01-09T17:53:41.482Z,101834.13
2019-01-09T17:56:11.869Z,101838.97
2019-01-09T17:58:40.831Z,101843.02
2019-01-09T18:01:09.827Z,101855.39
2019-01-09T18:03:38.800Z,101852.95
2019-01-09T18:06:07.736Z,101851.59
2019-01-09T18:08:37.105Z,101857.02
2019-01-09T18:11:06.695Z,101862.38
2019-01-09T18:13:35.674Z,101864.98
2019-01-09T18:16:04.690Z,101867.59
2019-01-09T18:18:34.615Z,101862.66
2019-01-09T18:21:03.666Z,101866.87
2019-01-09T18:23:32.684Z,101868.09
2019-01-09T18:26:01.684Z,101879.92
2019-01-09T18:28:30.684Z,101875.48
2019-01-09T18:31:20.121Z,101880.41
2019-01-09T18:34:26.469Z,101889.94
2019-01-09T18:37:19.607Z,101898.05
2019-01-09T18:40:17.856Z,101893.94
2019-01-09T18:43:23.584Z,101893.84
2019-01-09T18:46:02.325Z,101911.23
2019-01-09T18:49:01.141Z,101911.30
2019-01-09T18:51:42.822Z,101909.59
2019-01-09T18:54:11.811Z,101914.73
2019-01-09T18:56:40.776Z,101916.66
2019-01-09T18:59:10.074Z,101924.34
2019-01-09T19:01:39.092Z,101920.81
2019-01-09T19:04:08.063Z,101929.85
2019-01-09T19:06:46.707Z,101937.70
2019-01-09T19:09:15.614Z,101945.89
2019-01-09T19:11:50.435Z,101944.02
2019-01-09T19:14:15.344Z,101940.67
2019-01-09T19:16:44.703Z,101947.01
2019-01-09T19:19:15.906Z,101944.94
2019-01-09T19:21:45.600Z,101947.77
2019-01-09T19:24:14.647Z,101953.88
2019-01-09T19:26:43.545Z,101948.26
2019-01-09T19:29:13.127Z,101952.66
2019-01-09T19:31:42.226Z,101960.73
2019-01-09T19:34:11.525Z,101962.04
2019-01-09T19:36:40.506Z,101962.04
2019-01-09T19:39:09.965Z,101973.86
2019-01-09T19:41:42.148Z,101984.02
2019-01-09T19:44:12.765Z,101983.88
2019-01-09T19:46:44.162Z,101994.12
2019-01-09T19:49:18.184Z,102001.05
2019-01-09T19:51:47.609Z,102010.46
2019-01-09T19:54:19.221Z,102009.72
2019-01-09T19:56:48.708Z,102013.70
2019-01-09T20:02:45.833Z,102019.17
2019-01-09T20:05:14.687Z,102017.00
2019-01-09T20:07:43.729Z,102024.05
2019-01-09T20:10:15.026Z,102020.41
2019-01-09T20:12:44.139Z,102028.67
2019-01-09T20:15:14.345Z,102033.90
2019-01-09T20:17:43.367Z,102031.88
2019-01-09T20:20:14.185Z,102033.18
2019-01-09T20:26:10.530Z,102038.36
2019-01-09T20:29:06.172Z,102042.20
2019-01-09T20:31:35.264Z,102036.41
2019-01-09T20:34:04.374Z,102046.84
2019-01-09T20:36:33.291Z,102039.09
2019-01-09T20:39:02.368Z,102050.34
2019-01-09T20:41:35.374Z,102048.70
2019-01-09T20:44:03.703Z,102053.23
2019-01-09T20:46:32.724Z,102057.72
2019-01-09T20:49:01.949Z,102074.17
2019-01-09T20:51:30.921Z,102069.91
2019-01-09T20:53:59.981Z,102069.91
2019-01-09T20:56:28.991Z,102068.67
2019-01-09T20:59:00.447Z,102073.52
2019-01-09T21:01:29.565Z,102076.09
2019-01-09T21:03:58.431Z,102078.91
2019-01-09T21:06:27.646Z,102079.94
2019-01-09T21:08:59.774Z,102087.42
2019-01-09T21:11:27.423Z,102089.96
2019-01-09T21:13:56.527Z,102092.98
2019-01-09T21:16:25.965Z,102096.38
2019-01-09T21:18:54.934Z,102105.71
2019-01-09T21:21:23.862Z,102106.67
2019-01-09T21:23:53.293Z,102108.11
2019-01-09T21:26:22.458Z,102104.81
2019-01-09T21:28:52.205Z,102111.33
2019-01-09T21:31:21.144Z,102107.08
2019-01-09T21:33:50.121Z,102104.80
2019-01-09T21:36:19.109Z,102103.63
2019-01-09T21:38:48.079Z,102113.52
2019-01-09T21:41:17.176Z,102120.94
2019-01-09T21:43:46.326Z,102113.59
2019-01-09T21:46:15.581Z,102123.95
2019-01-09T21:48:45.087Z,102132.25
2019-01-09T21:51:14.486Z,102128.48
2019-01-09T21:53:43.554Z,102130.81
2019-01-09T21:56:12.518Z,102134.44
2019-01-09T21:58:41.523Z,102138.45
2019-01-09T22:01:10.684Z,102150.59
2019-01-09T22:03:39.948Z,102151.49
2019-01-09T22:06:09.023Z,102156.23
2019-01-09T22:08:38.097Z,102159.91
2019-01-09T22:11:07.117Z,102163.36
2019-01-09T22:13:36.009Z,102168.84
2019-01-09T22:16:05.519Z,102171.42
2019-01-09T22:18:35.075Z,102178.05
2019-01-09T22:21:04.333Z,102175.69
2019-01-09T22:23:33.324Z,102180.55
2019-01-09T22:26:02.321Z,102182.09
2019-01-09T22:28:31.215Z,102185.58
2019-01-09T22:31:00.217Z,102180.70
2019-01-09T22:33:29.262Z,102185.70
2019-01-09T22:35:58.273Z,102185.44
2019-01-09T22:38:27.248Z,102186.27
2019-01-09T22:40:56.479Z,102179.83
2019-01-09T22:43:25.702Z,102187.22
2019-01-09T22:45:54.556Z,102192.36
2019-01-09T22:48:24.227Z,102191.80
2019-01-09T22:50:53.649Z,102184.58
2019-01-09T22:53:22.743Z,102190.85
2019-01-09T22:55:51.817Z,102196.94
2019-01-09T22:58:21.107Z,102189.69
2019-01-09T23:01:23.425Z,102192.88
2019-01-09T23:03:54.419Z,102190.64
2019-01-09T23:06:24.042Z,102192.28
2019-01-09T23:08:53.279Z,102187.13
2019-01-09T23:11:22.430Z,102187.38
2019-01-09T23:13:51.662Z,102181.56
2019-01-09T23:16:20.684Z,102189.16
2019-01-09T23:18:49.621Z,102191.73
2019-01-09T23:21:18.634Z,102184.38
2019-01-09T23:23:47.607Z,102188.55
2019-01-09T23:26:19.007Z,102185.41
2019-01-09T23:28:47.954Z,102182.60
2019-01-09T23:31:16.927Z,102185.95
2019-01-09T23:33:45.806Z,102187.81
2019-01-09T23:36:14.796Z,102185.20
2019-01-09T23:38:43.678Z,102184.86
2019-01-09T23:41:12.645Z,102185.69
2019-01-09T23:43:43.762Z,102185.30
2019-01-09T23:46:12.665Z,102187.13
2019-01-09T23:48:41.610Z,102189.52
2019-01-09T23:51:10.521Z,102194.59
2019-01-09T23:53:39.469Z,102186.64
2019-01-09T23:56:08.450Z,102187.77
2019-01-09T23:58:37.437Z,102200.28
